sensor_id;sensor_type;location;lat;lon;timestamp;temperature;humidity
65072;DHT22;51663;52.310;17.016;2023-10-13T00:00:43;33.40;34.00
65072;DHT22;51663;52.310;17.016;2023-10-13T00:04:05;33.30;34.10
65072;DHT22;51663;52.310;17.016;2023-10-13T00:07:10;33.40;34.20
65072;DHT22;51663;52.310;17.016;2023-10-13T00:10:13;33.30;34.20
65072;DHT22;51663;52.310;17.016;2023-10-13T00:13:16;33.40;34.20
65072;DHT22;51663;52.310;17.016;2023-10-13T00:16:23;33.60;34.00
65072;DHT22;51663;52.310;17.016;2023-10-13T00:22:49;33.40;34.20
65072;DHT22;51663;52.310;17.016;2023-10-13T00:25:51;33.40;34.30
65072;DHT22;51663;52.310;17.016;2023-10-13T00:29:00;33.40;34.40
65072;DHT22;51663;52.310;17.016;2023-10-13T00:32:09;33.40;34.50
65072;DHT22;51663;52.310;17.016;2023-10-13T00:35:14;33.50;34.40
65072;DHT22;51663;52.310;17.016;2023-10-13T00:38:27;33.50;34.50
65072;DHT22;51663;52.310;17.016;2023-10-13T00:41:31;33.60;34.40
65072;DHT22;51663;52.310;17.016;2023-10-13T00:44:53;33.60;34.30
65072;DHT22;51663;52.310;17.016;2023-10-13T00:47:57;33.80;34.30
65072;DHT22;51663;52.310;17.016;2023-10-13T00:51:05;33.70;34.50
65072;DHT22;51663;52.310;17.016;2023-10-13T00:54:18;33.60;34.60
65072;DHT22;51663;52.310;17.016;2023-10-13T00:57:29;33.50;34.80
65072;DHT22;51663;52.310;17.016;2023-10-13T01:00:38;33.40;34.90
65072;DHT22;51663;52.310;17.016;2023-10-13T01:03:53;33.50;34.80
65072;DHT22;51663;52.310;17.016;2023-10-13T01:07:01;33.60;34.90
65072;DHT22;51663;52.310;17.016;2023-10-13T01:10:04;33.60;34.70
65072;DHT22;51663;52.310;17.016;2023-10-13T01:13:07;33.70;34.60
65072;DHT22;51663;52.310;17.016;2023-10-13T01:16:10;33.70;34.50
65072;DHT22;51663;52.310;17.016;2023-10-13T01:19:17;33.70;34.50
65072;DHT22;51663;52.310;17.016;2023-10-13T01:22:21;33.60;34.70
65072;DHT22;51663;52.310;17.016;2023-10-13T01:25:25;33.60;34.70
65072;DHT22;51663;52.310;17.016;2023-10-13T01:28:31;33.70;34.80
65072;DHT22;51663;52.310;17.016;2023-10-13T01:31:46;33.70;34.70
65072;DHT22;51663;52.310;17.016;2023-10-13T01:34:49;33.70;34.60
65072;DHT22;51663;52.310;17.016;2023-10-13T01:37:56;33.80;34.60
65072;DHT22;51663;52.310;17.016;2023-10-13T01:40:59;33.80;34.80
65072;DHT22;51663;52.310;17.016;2023-10-13T01:44:02;33.80;34.50
65072;DHT22;51663;52.310;17.016;2023-10-13T01:47:05;33.90;34.60
65072;DHT22;51663;52.310;17.016;2023-10-13T01:50:08;33.80;34.50
65072;DHT22;51663;52.310;17.016;2023-10-13T01:53:22;33.80;34.60
65072;DHT22;51663;52.310;17.016;2023-10-13T01:56:25;33.80;34.60
65072;DHT22;51663;52.310;17.016;2023-10-13T01:59:32;33.80;34.50
65072;DHT22;51663;52.310;17.016;2023-10-13T02:02:34;33.80;34.50
65072;DHT22;51663;52.310;17.016;2023-10-13T02:05:41;33.80;34.70
65072;DHT22;51663;52.310;17.016;2023-10-13T02:08:49;33.80;34.50
65072;DHT22;51663;52.310;17.016;2023-10-13T02:11:59;33.80;34.50
65072;DHT22;51663;52.310;17.016;2023-10-13T02:15:01;33.80;34.60
65072;DHT22;51663;52.310;17.016;2023-10-13T02:18:04;33.80;34.50
65072;DHT22;51663;52.310;17.016;2023-10-13T02:21:06;33.80;34.50
65072;DHT22;51663;52.310;17.016;2023-10-13T02:24:14;33.80;34.60
65072;DHT22;51663;52.310;17.016;2023-10-13T02:27:20;33.80;34.60
65072;DHT22;51663;52.310;17.016;2023-10-13T02:30:26;33.80;34.70
65072;DHT22;51663;52.310;17.016;2023-10-13T02:33:31;33.90;34.90
65072;DHT22;51663;52.310;17.016;2023-10-13T02:36:38;33.80;34.80
65072;DHT22;51663;52.310;17.016;2023-10-13T02:39:50;33.80;34.70
65072;DHT22;51663;52.310;17.016;2023-10-13T02:42:53;33.90;34.70
65072;DHT22;51663;52.310;17.016;2023-10-13T02:45:55;33.90;34.80
65072;DHT22;51663;52.310;17.016;2023-10-13T02:49:02;33.90;34.90
65072;DHT22;51663;52.310;17.016;2023-10-13T02:52:11;34.00;34.80
65072;DHT22;51663;52.310;17.016;2023-10-13T02:55:15;34.00;34.80
65072;DHT22;51663;52.310;17.016;2023-10-13T02:58:19;34.00;34.70
65072;DHT22;51663;52.310;17.016;2023-10-13T03:01:23;34.00;34.60
65072;DHT22;51663;52.310;17.016;2023-10-13T03:04:31;34.10;35.20
65072;DHT22;51663;52.310;17.016;2023-10-13T03:07:33;34.00;34.70
65072;DHT22;51663;52.310;17.016;2023-10-13T03:10:38;33.90;34.80
65072;DHT22;51663;52.310;17.016;2023-10-13T03:13:49;33.80;34.90
65072;DHT22;51663;52.310;17.016;2023-10-13T03:16:58;33.60;35.20
65072;DHT22;51663;52.310;17.016;2023-10-13T03:20:06;33.60;35.20
65072;DHT22;51663;52.310;17.016;2023-10-13T03:23:13;33.70;35.30
65072;DHT22;51663;52.310;17.016;2023-10-13T03:26:15;33.70;35.30
65072;DHT22;51663;52.310;17.016;2023-10-13T03:29:21;33.70;35.30
65072;DHT22;51663;52.310;17.016;2023-10-13T03:32:27;33.70;35.20
65072;DHT22;51663;52.310;17.016;2023-10-13T03:35:34;33.80;35.20
65072;DHT22;51663;52.310;17.016;2023-10-13T03:38:40;33.80;35.20
65072;DHT22;51663;52.310;17.016;2023-10-13T03:41:42;33.70;35.10
65072;DHT22;51663;52.310;17.016;2023-10-13T03:44:47;33.70;35.30
65072;DHT22;51663;52.310;17.016;2023-10-13T03:47:49;33.70;35.20
65072;DHT22;51663;52.310;17.016;2023-10-13T03:50:56;33.80;35.30
65072;DHT22;51663;52.310;17.016;2023-10-13T03:54:06;33.90;35.10
65072;DHT22;51663;52.310;17.016;2023-10-13T03:57:11;33.80;35.20
65072;DHT22;51663;52.310;17.016;2023-10-13T04:00:16;33.80;35.20
65072;DHT22;51663;52.310;17.016;2023-10-13T04:03:25;33.80;35.40
65072;DHT22;51663;52.310;17.016;2023-10-13T04:06:35;33.80;35.40
65072;DHT22;51663;52.310;17.016;2023-10-13T04:09:49;33.80;35.30
65072;DHT22;51663;52.310;17.016;2023-10-13T04:12:52;33.90;35.30
65072;DHT22;51663;52.310;17.016;2023-10-13T04:16:15;33.90;35.30
65072;DHT22;51663;52.310;17.016;2023-10-13T04:19:37;33.80;35.30
65072;DHT22;51663;52.310;17.016;2023-10-13T04:22:59;33.80;35.30
65072;DHT22;51663;52.310;17.016;2023-10-13T04:26:05;33.90;35.30
65072;DHT22;51663;52.310;17.016;2023-10-13T04:29:23;33.80;35.40
65072;DHT22;51663;52.310;17.016;2023-10-13T04:32:44;33.90;35.30
65072;DHT22;51663;52.310;17.016;2023-10-13T04:36:15;33.90;35.30
65072;DHT22;51663;52.310;17.016;2023-10-13T04:39:29;33.90;35.30
65072;DHT22;51663;52.310;17.016;2023-10-13T04:42:37;33.90;35.40
65072;DHT22;51663;52.310;17.016;2023-10-13T04:45:52;33.90;35.30
65072;DHT22;51663;52.310;17.016;2023-10-13T04:48:57;34.00;35.40
65072;DHT22;51663;52.310;17.016;2023-10-13T04:52:04;33.90;35.40
65072;DHT22;51663;52.310;17.016;2023-10-13T04:55:13;33.80;35.50
65072;DHT22;51663;52.310;17.016;2023-10-13T04:58:20;33.80;35.50
65072;DHT22;51663;52.310;17.016;2023-10-13T05:01:35;33.90;35.40
65072;DHT22;51663;52.310;17.016;2023-10-13T05:04:56;34.00;35.40
65072;DHT22;51663;52.310;17.016;2023-10-13T05:08:25;33.80;35.40
65072;DHT22;51663;52.310;17.016;2023-10-13T05:11:46;33.90;35.40
65072;DHT22;51663;52.310;17.016;2023-10-13T05:15:07;34.00;35.40
65072;DHT22;51663;52.310;17.016;2023-10-13T05:18:28;34.00;35.40
65072;DHT22;51663;52.310;17.016;2023-10-13T05:21:49;33.90;35.40
65072;DHT22;51663;52.310;17.016;2023-10-13T05:25:10;33.90;35.30
65072;DHT22;51663;52.310;17.016;2023-10-13T05:28:31;34.00;35.40
65072;DHT22;51663;52.310;17.016;2023-10-13T05:31:52;34.00;35.40
65072;DHT22;51663;52.310;17.016;2023-10-13T05:35:13;34.00;35.10
65072;DHT22;51663;52.310;17.016;2023-10-13T05:38:34;34.00;35.30
65072;DHT22;51663;52.310;17.016;2023-10-13T05:41:55;34.00;35.40
65072;DHT22;51663;52.310;17.016;2023-10-13T05:45:15;34.00;35.50
65072;DHT22;51663;52.310;17.016;2023-10-13T05:48:42;34.00;35.60
65072;DHT22;51663;52.310;17.016;2023-10-13T05:51:59;34.00;35.60
65072;DHT22;51663;52.310;17.016;2023-10-13T05:55:31;34.10;35.50
65072;DHT22;51663;52.310;17.016;2023-10-13T05:59:02;34.10;35.50
65072;DHT22;51663;52.310;17.016;2023-10-13T06:02:25;34.10;35.60
65072;DHT22;51663;52.310;17.016;2023-10-13T06:05:48;34.20;35.60
65072;DHT22;51663;52.310;17.016;2023-10-13T06:09:10;34.30;35.50
65072;DHT22;51663;52.310;17.016;2023-10-13T06:12:30;34.30;35.40
65072;DHT22;51663;52.310;17.016;2023-10-13T06:15:51;34.20;35.60
65072;DHT22;51663;52.310;17.016;2023-10-13T06:19:12;34.30;35.50
65072;DHT22;51663;52.310;17.016;2023-10-13T06:22:34;34.40;35.50
65072;DHT22;51663;52.310;17.016;2023-10-13T06:25:55;34.30;35.50
65072;DHT22;51663;52.310;17.016;2023-10-13T06:29:18;34.30;35.50
65072;DHT22;51663;52.310;17.016;2023-10-13T06:32:23;34.30;35.60
65072;DHT22;51663;52.310;17.016;2023-10-13T06:35:29;34.20;35.80
65072;DHT22;51663;52.310;17.016;2023-10-13T06:38:33;34.30;35.70
65072;DHT22;51663;52.310;17.016;2023-10-13T06:41:39;34.30;35.60
65072;DHT22;51663;52.310;17.016;2023-10-13T06:44:43;34.30;35.80
65072;DHT22;51663;52.310;17.016;2023-10-13T06:47:48;34.20;35.90
65072;DHT22;51663;52.310;17.016;2023-10-13T06:50:55;34.20;35.90
65072;DHT22;51663;52.310;17.016;2023-10-13T06:53:58;34.30;35.90
65072;DHT22;51663;52.310;17.016;2023-10-13T06:57:00;34.40;36.00
65072;DHT22;51663;52.310;17.016;2023-10-13T07:00:06;34.40;35.90
65072;DHT22;51663;52.310;17.016;2023-10-13T07:03:11;34.40;35.90
65072;DHT22;51663;52.310;17.016;2023-10-13T07:06:24;34.40;35.80
65072;DHT22;51663;52.310;17.016;2023-10-13T07:09:27;34.50;36.00
65072;DHT22;51663;52.310;17.016;2023-10-13T07:12:36;34.60;36.00
65072;DHT22;51663;52.310;17.016;2023-10-13T07:15:42;34.70;35.80
65072;DHT22;51663;52.310;17.016;2023-10-13T07:18:47;34.70;36.00
65072;DHT22;51663;52.310;17.016;2023-10-13T07:21:58;34.80;36.00
65072;DHT22;51663;52.310;17.016;2023-10-13T07:25:01;34.90;36.00
65072;DHT22;51663;52.310;17.016;2023-10-13T07:28:08;35.00;35.90
65072;DHT22;51663;52.310;17.016;2023-10-13T07:31:13;35.10;35.90
65072;DHT22;51663;52.310;17.016;2023-10-13T07:34:21;35.10;35.80
65072;DHT22;51663;52.310;17.016;2023-10-13T07:37:35;35.20;35.70
65072;DHT22;51663;52.310;17.016;2023-10-13T07:40:37;35.30;35.70
65072;DHT22;51663;52.310;17.016;2023-10-13T07:43:44;35.30;35.70
65072;DHT22;51663;52.310;17.016;2023-10-13T07:46:48;35.30;35.70
65072;DHT22;51663;52.310;17.016;2023-10-13T07:50:00;35.40;35.80
65072;DHT22;51663;52.310;17.016;2023-10-13T07:53:02;35.40;35.90
65072;DHT22;51663;52.310;17.016;2023-10-13T07:56:22;35.40;35.90
65072;DHT22;51663;52.310;17.016;2023-10-13T07:59:24;35.50;36.00
65072;DHT22;51663;52.310;17.016;2023-10-13T08:02:27;35.50;35.90
65072;DHT22;51663;52.310;17.016;2023-10-13T08:05:53;35.60;35.80
65072;DHT22;51663;52.310;17.016;2023-10-13T08:09:14;35.60;36.00
65072;DHT22;51663;52.310;17.016;2023-10-13T08:12:42;35.70;36.10
65072;DHT22;51663;52.310;17.016;2023-10-13T08:15:46;35.70;36.10
65072;DHT22;51663;52.310;17.016;2023-10-13T08:18:55;35.80;36.20
65072;DHT22;51663;52.310;17.016;2023-10-13T08:21:59;35.90;36.20
65072;DHT22;51663;52.310;17.016;2023-10-13T08:25:02;35.90;36.30
65072;DHT22;51663;52.310;17.016;2023-10-13T08:28:26;36.00;36.10
65072;DHT22;51663;52.310;17.016;2023-10-13T08:31:50;36.00;36.00
65072;DHT22;51663;52.310;17.016;2023-10-13T08:35:12;36.20;36.20
65072;DHT22;51663;52.310;17.016;2023-10-13T08:38:25;36.30;36.00
65072;DHT22;51663;52.310;17.016;2023-10-13T08:41:33;36.40;36.00
65072;DHT22;51663;52.310;17.016;2023-10-13T08:44:44;36.50;36.10
65072;DHT22;51663;52.310;17.016;2023-10-13T08:48:00;36.60;36.10
65072;DHT22;51663;52.310;17.016;2023-10-13T08:51:15;36.70;36.30
65072;DHT22;51663;52.310;17.016;2023-10-13T08:54:35;36.90;36.20
65072;DHT22;51663;52.310;17.016;2023-10-13T08:57:41;37.10;35.90
65072;DHT22;51663;52.310;17.016;2023-10-13T09:00:53;37.10;36.00
65072;DHT22;51663;52.310;17.016;2023-10-13T09:04:15;37.20;35.90
65072;DHT22;51663;52.310;17.016;2023-10-13T09:07:47;37.30;35.80
65072;DHT22;51663;52.310;17.016;2023-10-13T09:11:04;37.40;35.50
65072;DHT22;51663;52.310;17.016;2023-10-13T09:14:16;37.50;35.60
65072;DHT22;51663;52.310;17.016;2023-10-13T09:17:49;37.60;35.70
65072;DHT22;51663;52.310;17.016;2023-10-13T09:21:00;37.50;35.70
65072;DHT22;51663;52.310;17.016;2023-10-13T09:24:22;37.60;35.90
65072;DHT22;51663;52.310;17.016;2023-10-13T09:27:31;37.60;35.80
65072;DHT22;51663;52.310;17.016;2023-10-13T09:30:35;37.70;36.00
65072;DHT22;51663;52.310;17.016;2023-10-13T09:33:37;37.70;35.60
65072;DHT22;51663;52.310;17.016;2023-10-13T09:36:50;37.90;35.50
65072;DHT22;51663;52.310;17.016;2023-10-13T09:39:57;37.80;35.70
65072;DHT22;51663;52.310;17.016;2023-10-13T09:43:07;37.80;35.80
65072;DHT22;51663;52.310;17.016;2023-10-13T09:46:10;37.90;35.70
65072;DHT22;51663;52.310;17.016;2023-10-13T09:49:25;37.90;36.00
65072;DHT22;51663;52.310;17.016;2023-10-13T09:52:50;38.10;35.90
65072;DHT22;51663;52.310;17.016;2023-10-13T09:56:14;38.10;35.70
65072;DHT22;51663;52.310;17.016;2023-10-13T09:59:35;38.00;35.70
65072;DHT22;51663;52.310;17.016;2023-10-13T10:02:40;37.90;35.80
65072;DHT22;51663;52.310;17.016;2023-10-13T10:05:57;38.00;36.00
65072;DHT22;51663;52.310;17.016;2023-10-13T10:09:33;38.20;36.10
65072;DHT22;51663;52.310;17.016;2023-10-13T10:12:56;38.20;35.50
65072;DHT22;51663;52.310;17.016;2023-10-13T10:16:12;38.30;35.30
65072;DHT22;51663;52.310;17.016;2023-10-13T10:19:26;38.40;35.40
65072;DHT22;51663;52.310;17.016;2023-10-13T10:22:32;38.50;35.00
65072;DHT22;51663;52.310;17.016;2023-10-13T10:25:47;38.30;35.00
65072;DHT22;51663;52.310;17.016;2023-10-13T10:28:53;38.50;35.50
65072;DHT22;51663;52.310;17.016;2023-10-13T10:31:56;38.50;35.40
65072;DHT22;51663;52.310;17.016;2023-10-13T10:35:11;38.60;35.10
65072;DHT22;51663;52.310;17.016;2023-10-13T10:38:37;38.60;34.60
65072;DHT22;51663;52.310;17.016;2023-10-13T10:41:42;38.70;34.90
65072;DHT22;51663;52.310;17.016;2023-10-13T10:44:45;38.80;34.90
65072;DHT22;51663;52.310;17.016;2023-10-13T10:47:53;38.70;34.60
65072;DHT22;51663;52.310;17.016;2023-10-13T10:51:16;38.70;34.50
65072;DHT22;51663;52.310;17.016;2023-10-13T10:54:30;38.70;34.60
65072;DHT22;51663;52.310;17.016;2023-10-13T10:57:40;38.80;34.70
65072;DHT22;51663;52.310;17.016;2023-10-13T11:00:45;38.80;35.00
65072;DHT22;51663;52.310;17.016;2023-10-13T11:03:59;38.70;34.50
65072;DHT22;51663;52.310;17.016;2023-10-13T11:07:21;38.50;34.80
65072;DHT22;51663;52.310;17.016;2023-10-13T11:10:24;38.60;34.40
65072;DHT22;51663;52.310;17.016;2023-10-13T11:13:42;38.60;34.80
65072;DHT22;51663;52.310;17.016;2023-10-13T11:16:57;38.70;34.80
65072;DHT22;51663;52.310;17.016;2023-10-13T11:20:08;38.90;34.60
65072;DHT22;51663;52.310;17.016;2023-10-13T11:23:20;38.90;34.50
65072;DHT22;51663;52.310;17.016;2023-10-13T11:26:35;38.90;34.60
65072;DHT22;51663;52.310;17.016;2023-10-13T11:29:51;38.90;35.10
65072;DHT22;51663;52.310;17.016;2023-10-13T11:33:01;39.00;34.70
65072;DHT22;51663;52.310;17.016;2023-10-13T11:36:08;38.90;35.00
65072;DHT22;51663;52.310;17.016;2023-10-13T11:39:17;38.80;35.30
65072;DHT22;51663;52.310;17.016;2023-10-13T11:42:25;38.90;35.70
65072;DHT22;51663;52.310;17.016;2023-10-13T11:45:29;39.00;35.50
65072;DHT22;51663;52.310;17.016;2023-10-13T11:48:34;38.90;35.50
65072;DHT22;51663;52.310;17.016;2023-10-13T11:51:38;38.90;36.00
65072;DHT22;51663;52.310;17.016;2023-10-13T11:54:40;38.90;35.90
65072;DHT22;51663;52.310;17.016;2023-10-13T11:57:44;38.90;35.60
65072;DHT22;51663;52.310;17.016;2023-10-13T12:00:47;39.00;35.50
65072;DHT22;51663;52.310;17.016;2023-10-13T12:04:07;38.90;35.90
65072;DHT22;51663;52.310;17.016;2023-10-13T12:07:28;38.90;35.80
65072;DHT22;51663;52.310;17.016;2023-10-13T12:10:51;38.80;35.80
65072;DHT22;51663;52.310;17.016;2023-10-13T12:14:15;38.90;35.80
65072;DHT22;51663;52.310;17.016;2023-10-13T12:17:52;38.90;35.60
65072;DHT22;51663;52.310;17.016;2023-10-13T12:20:55;38.90;35.70
65072;DHT22;51663;52.310;17.016;2023-10-13T12:23:59;39.00;35.40
65072;DHT22;51663;52.310;17.016;2023-10-13T12:27:05;39.00;35.90
65072;DHT22;51663;52.310;17.016;2023-10-13T12:30:25;39.10;35.40
65072;DHT22;51663;52.310;17.016;2023-10-13T12:33:46;39.20;35.20
65072;DHT22;51663;52.310;17.016;2023-10-13T12:36:52;39.20;35.80
65072;DHT22;51663;52.310;17.016;2023-10-13T12:40:28;39.20;35.40
65072;DHT22;51663;52.310;17.016;2023-10-13T12:43:49;39.30;35.20
65072;DHT22;51663;52.310;17.016;2023-10-13T12:47:10;39.30;34.30
65072;DHT22;51663;52.310;17.016;2023-10-13T12:50:33;39.10;34.40
65072;DHT22;51663;52.310;17.016;2023-10-13T12:53:50;39.00;34.60
65072;DHT22;51663;52.310;17.016;2023-10-13T12:56:52;39.00;34.90
65072;DHT22;51663;52.310;17.016;2023-10-13T13:00:00;39.10;34.90
65072;DHT22;51663;52.310;17.016;2023-10-13T13:03:04;39.10;35.20
65072;DHT22;51663;52.310;17.016;2023-10-13T13:06:17;39.00;35.20
65072;DHT22;51663;52.310;17.016;2023-10-13T13:09:20;39.10;34.80
65072;DHT22;51663;52.310;17.016;2023-10-13T13:12:32;39.20;34.60
65072;DHT22;51663;52.310;17.016;2023-10-13T13:15:34;39.30;34.50
65072;DHT22;51663;52.310;17.016;2023-10-13T13:18:37;39.10;34.60
65072;DHT22;51663;52.310;17.016;2023-10-13T13:21:39;39.10;34.60
65072;DHT22;51663;52.310;17.016;2023-10-13T13:24:43;39.00;34.40
65072;DHT22;51663;52.310;17.016;2023-10-13T13:27:46;39.10;34.40
65072;DHT22;51663;52.310;17.016;2023-10-13T13:30:48;39.00;34.50
65072;DHT22;51663;52.310;17.016;2023-10-13T13:33:53;39.00;34.60
65072;DHT22;51663;52.310;17.016;2023-10-13T13:36:57;39.00;34.80
65072;DHT22;51663;52.310;17.016;2023-10-13T13:40:04;38.90;34.90
65072;DHT22;51663;52.310;17.016;2023-10-13T13:43:16;39.00;34.90
65072;DHT22;51663;52.310;17.016;2023-10-13T13:46:34;39.00;35.00
65072;DHT22;51663;52.310;17.016;2023-10-13T13:49:43;39.00;34.90
65072;DHT22;51663;52.310;17.016;2023-10-13T13:52:54;38.70;35.10
65072;DHT22;51663;52.310;17.016;2023-10-13T13:56:01;38.70;35.10
65072;DHT22;51663;52.310;17.016;2023-10-13T13:59:04;38.70;35.20
65072;DHT22;51663;52.310;17.016;2023-10-13T14:02:10;38.70;35.10
65072;DHT22;51663;52.310;17.016;2023-10-13T14:05:23;38.70;35.20
65072;DHT22;51663;52.310;17.016;2023-10-13T14:08:26;38.70;35.30
65072;DHT22;51663;52.310;17.016;2023-10-13T14:11:31;38.70;35.10
65072;DHT22;51663;52.310;17.016;2023-10-13T14:14:42;38.60;35.10
65072;DHT22;51663;52.310;17.016;2023-10-13T14:17:51;38.70;35.10
65072;DHT22;51663;52.310;17.016;2023-10-13T14:20:54;38.70;35.00
65072;DHT22;51663;52.310;17.016;2023-10-13T14:23:58;38.60;35.00
65072;DHT22;51663;52.310;17.016;2023-10-13T14:27:03;38.70;35.10
65072;DHT22;51663;52.310;17.016;2023-10-13T14:30:15;38.70;35.00
65072;DHT22;51663;52.310;17.016;2023-10-13T14:33:26;38.70;35.10
65072;DHT22;51663;52.310;17.016;2023-10-13T14:36:29;38.60;35.10
65072;DHT22;51663;52.310;17.016;2023-10-13T14:39:31;38.80;35.20
65072;DHT22;51663;52.310;17.016;2023-10-13T14:42:36;38.60;35.30
65072;DHT22;51663;52.310;17.016;2023-10-13T14:45:39;38.40;35.50
65072;DHT22;51663;52.310;17.016;2023-10-13T14:48:42;38.40;35.50
65072;DHT22;51663;52.310;17.016;2023-10-13T14:51:44;38.40;35.90
65072;DHT22;51663;52.310;17.016;2023-10-13T14:54:46;38.30;35.80
65072;DHT22;51663;52.310;17.016;2023-10-13T14:57:50;38.40;35.60
65072;DHT22;51663;52.310;17.016;2023-10-13T15:00:54;38.50;35.90
65072;DHT22;51663;52.310;17.016;2023-10-13T15:03:56;38.40;36.10
65072;DHT22;51663;52.310;17.016;2023-10-13T15:07:02;38.20;36.10
65072;DHT22;51663;52.310;17.016;2023-10-13T15:10:04;38.30;36.20
65072;DHT22;51663;52.310;17.016;2023-10-13T15:13:07;38.40;36.20
65072;DHT22;51663;52.310;17.016;2023-10-13T15:16:18;38.30;36.20
65072;DHT22;51663;52.310;17.016;2023-10-13T15:19:21;38.20;36.30
65072;DHT22;51663;52.310;17.016;2023-10-13T15:22:23;38.20;36.30
65072;DHT22;51663;52.310;17.016;2023-10-13T15:25:30;38.20;36.50
65072;DHT22;51663;52.310;17.016;2023-10-13T15:28:42;38.10;36.50
65072;DHT22;51663;52.310;17.016;2023-10-13T15:31:58;38.20;36.60
65072;DHT22;51663;52.310;17.016;2023-10-13T15:35:01;38.10;36.60
65072;DHT22;51663;52.310;17.016;2023-10-13T15:38:04;38.20;36.70
65072;DHT22;51663;52.310;17.016;2023-10-13T15:41:06;38.10;36.80
65072;DHT22;51663;52.310;17.016;2023-10-13T15:44:11;38.10;36.70
65072;DHT22;51663;52.310;17.016;2023-10-13T15:47:15;38.10;36.90
65072;DHT22;51663;52.310;17.016;2023-10-13T15:50:20;38.20;36.80
65072;DHT22;51663;52.310;17.016;2023-10-13T15:53:24;38.10;36.90
65072;DHT22;51663;52.310;17.016;2023-10-13T15:56:27;38.10;36.90
65072;DHT22;51663;52.310;17.016;2023-10-13T15:59:29;38.00;37.00
65072;DHT22;51663;52.310;17.016;2023-10-13T16:02:32;38.10;36.90
65072;DHT22;51663;52.310;17.016;2023-10-13T16:05:34;38.10;36.90
65072;DHT22;51663;52.310;17.016;2023-10-13T16:08:40;38.00;37.10
65072;DHT22;51663;52.310;17.016;2023-10-13T16:11:46;38.00;37.10
65072;DHT22;51663;52.310;17.016;2023-10-13T16:14:49;38.00;37.10
65072;DHT22;51663;52.310;17.016;2023-10-13T16:17:55;37.80;37.30
65072;DHT22;51663;52.310;17.016;2023-10-13T16:21:01;37.80;37.20
65072;DHT22;51663;52.310;17.016;2023-10-13T16:24:06;37.90;37.20
65072;DHT22;51663;52.310;17.016;2023-10-13T16:27:13;37.80;37.40
65072;DHT22;51663;52.310;17.016;2023-10-13T16:30:16;37.70;38.10
65072;DHT22;51663;52.310;17.016;2023-10-13T16:33:23;37.60;37.50
65072;DHT22;51663;52.310;17.016;2023-10-13T16:36:26;37.60;37.60
65072;DHT22;51663;52.310;17.016;2023-10-13T16:39:30;37.60;37.70
65072;DHT22;51663;52.310;17.016;2023-10-13T16:42:34;37.60;37.60
65072;DHT22;51663;52.310;17.016;2023-10-13T16:45:36;37.60;37.80
65072;DHT22;51663;52.310;17.016;2023-10-13T16:48:39;37.50;37.80
65072;DHT22;51663;52.310;17.016;2023-10-13T16:51:41;37.60;37.90
65072;DHT22;51663;52.310;17.016;2023-10-13T16:54:43;37.50;37.90
65072;DHT22;51663;52.310;17.016;2023-10-13T16:57:47;37.60;37.70
65072;DHT22;51663;52.310;17.016;2023-10-13T17:00:53;37.50;37.80
65072;DHT22;51663;52.310;17.016;2023-10-13T17:03:57;37.50;37.90
65072;DHT22;51663;52.310;17.016;2023-10-13T17:07:01;37.50;37.80
65072;DHT22;51663;52.310;17.016;2023-10-13T17:10:06;37.50;37.70
65072;DHT22;51663;52.310;17.016;2023-10-13T17:13:10;37.60;37.70
65072;DHT22;51663;52.310;17.016;2023-10-13T17:16:19;37.50;37.70
65072;DHT22;51663;52.310;17.016;2023-10-13T17:19:22;37.50;37.70
65072;DHT22;51663;52.310;17.016;2023-10-13T17:22:25;37.50;37.70
65072;DHT22;51663;52.310;17.016;2023-10-13T17:25:27;37.40;37.70
65072;DHT22;51663;52.310;17.016;2023-10-13T17:28:30;37.40;37.70
65072;DHT22;51663;52.310;17.016;2023-10-13T17:31:32;37.30;37.50
65072;DHT22;51663;52.310;17.016;2023-10-13T17:34:35;37.40;37.60
65072;DHT22;51663;52.310;17.016;2023-10-13T17:37:40;37.20;37.60
65072;DHT22;51663;52.310;17.016;2023-10-13T17:40:45;37.30;37.50
65072;DHT22;51663;52.310;17.016;2023-10-13T17:43:48;37.30;38.30
65072;DHT22;51663;52.310;17.016;2023-10-13T17:46:50;37.20;37.60
65072;DHT22;51663;52.310;17.016;2023-10-13T17:49:52;37.20;38.00
65072;DHT22;51663;52.310;17.016;2023-10-13T17:52:55;37.20;37.60
65072;DHT22;51663;52.310;17.016;2023-10-13T17:55:57;37.10;37.50
65072;DHT22;51663;52.310;17.016;2023-10-13T17:59:02;37.10;37.50
65072;DHT22;51663;52.310;17.016;2023-10-13T18:02:06;37.10;37.50
65072;DHT22;51663;52.310;17.016;2023-10-13T18:05:12;37.20;37.40
65072;DHT22;51663;52.310;17.016;2023-10-13T18:08:14;37.10;37.40
65072;DHT22;51663;52.310;17.016;2023-10-13T18:11:18;37.10;37.40
65072;DHT22;51663;52.310;17.016;2023-10-13T18:14:20;37.30;37.40
65072;DHT22;51663;52.310;17.016;2023-10-13T18:17:23;37.10;37.30
65072;DHT22;51663;52.310;17.016;2023-10-13T18:20:25;37.20;37.20
65072;DHT22;51663;52.310;17.016;2023-10-13T18:23:28;37.30;36.90
65072;DHT22;51663;52.310;17.016;2023-10-13T18:26:30;37.10;37.00
65072;DHT22;51663;52.310;17.016;2023-10-13T18:29:33;37.20;37.00
65072;DHT22;51663;52.310;17.016;2023-10-13T18:32:40;37.30;36.60
65072;DHT22;51663;52.310;17.016;2023-10-13T18:35:43;37.10;36.90
65072;DHT22;51663;52.310;17.016;2023-10-13T18:38:48;36.90;37.00
65072;DHT22;51663;52.310;17.016;2023-10-13T18:41:51;37.10;36.90
65072;DHT22;51663;52.310;17.016;2023-10-13T18:44:53;37.20;36.60
65072;DHT22;51663;52.310;17.016;2023-10-13T18:47:58;37.20;36.60
65072;DHT22;51663;52.310;17.016;2023-10-13T18:51:05;37.30;36.50
65072;DHT22;51663;52.310;17.016;2023-10-13T18:54:08;37.60;36.10
65072;DHT22;51663;52.310;17.016;2023-10-13T18:57:10;37.50;36.00
65072;DHT22;51663;52.310;17.016;2023-10-13T19:00:16;37.60;35.80
65072;DHT22;51663;52.310;17.016;2023-10-13T19:03:24;37.50;36.00
65072;DHT22;51663;52.310;17.016;2023-10-13T19:06:32;37.80;35.80
65072;DHT22;51663;52.310;17.016;2023-10-13T19:09:34;37.70;35.70
65072;DHT22;51663;52.310;17.016;2023-10-13T19:12:42;37.70;35.50
65072;DHT22;51663;52.310;17.016;2023-10-13T19:15:45;37.80;35.50
65072;DHT22;51663;52.310;17.016;2023-10-13T19:18:48;37.80;35.50
65072;DHT22;51663;52.310;17.016;2023-10-13T19:21:51;37.70;35.50
65072;DHT22;51663;52.310;17.016;2023-10-13T19:24:55;37.70;35.60
65072;DHT22;51663;52.310;17.016;2023-10-13T19:27:57;37.60;35.50
65072;DHT22;51663;52.310;17.016;2023-10-13T19:31:00;37.70;35.50
65072;DHT22;51663;52.310;17.016;2023-10-13T19:34:07;37.60;35.50
65072;DHT22;51663;52.310;17.016;2023-10-13T19:37:09;37.60;35.60